createdAt,value
2019-04-26T00:01:10.501Z,40.70
2019-04-26T00:03:43.549Z,27.20
2019-04-26T00:06:14.524Z,37.63
2019-04-26T00:08:45.240Z,46.58
2019-04-26T00:11:22.402Z,29.30
2019-04-26T00:14:11.296Z,34.05
2019-04-26T00:16:48.436Z,43.08
2019-04-26T00:19:17.889Z,29.40
2019-04-26T00:21:46.932Z,39.25
2019-04-26T00:24:15.856Z,33.53
2019-04-26T00:26:44.578Z,32.95
2019-04-26T00:29:13.316Z,38.33
2019-04-26T00:31:42.105Z,37.93
2019-04-26T00:34:10.971Z,44.03
2019-04-26T00:36:40.757Z,30.30
2019-04-26T00:39:09.596Z,31.48
2019-04-26T00:41:38.671Z,29.63
2019-04-26T00:44:07.575Z,28.17
2019-04-26T00:46:37.266Z,28.23
2019-04-26T00:49:09.261Z,29.00
2019-04-26T00:51:38.457Z,31.60
2019-04-26T00:54:07.844Z,29.98
2019-04-26T00:56:37.636Z,30.12
2019-04-26T00:59:08.130Z,31.57
2019-04-26T01:01:38.613Z,34.43
2019-04-26T01:04:07.337Z,37.05
2019-04-26T01:06:37.709Z,38.88
2019-04-26T01:09:07.434Z,27.25
2019-04-26T01:11:36.192Z,34.43
2019-04-26T01:14:05.264Z,28.07
2019-04-26T01:16:34.113Z,29.92
2019-04-26T01:19:02.850Z,36.55
2019-04-26T01:21:37.359Z,32.83
2019-04-26T01:24:09.160Z,31.35
2019-04-26T01:26:38.982Z,37.13
2019-04-26T01:29:10.649Z,29.42
2019-04-26T01:34:08.908Z,36.55
2019-04-26T01:36:39.129Z,35.58
2019-04-26T01:39:14.225Z,25.10
2019-04-26T01:41:47.538Z,38.83
2019-04-26T01:44:24.613Z,34.75
2019-04-26T01:46:54.085Z,38.05
2019-04-26T01:49:24.418Z,31.05
2019-04-26T01:51:56.113Z,35.80
2019-04-26T01:56:57.421Z,39.05
2019-04-26T02:01:55.770Z,31.82
2019-04-26T02:04:26.456Z,37.75
2019-04-26T02:06:55.262Z,38.17
2019-04-26T02:09:24.372Z,35.08
2019-04-26T02:11:53.154Z,30.37
2019-04-26T02:14:22.832Z,29.02
2019-04-26T02:16:52.909Z,31.37
2019-04-26T02:19:23.311Z,26.75
2019-04-26T02:21:58.040Z,29.18
2019-04-26T02:24:30.117Z,32.88
2019-04-26T02:27:00.813Z,31.33
2019-04-26T02:29:30.397Z,31.65
2019-04-26T02:32:02.482Z,26.62
2019-04-26T02:37:04.934Z,30.90
2019-04-26T02:42:12.405Z,25.08
2019-04-26T02:44:48.417Z,24.25
2019-04-26T02:47:39.796Z,28.02
2019-04-26T02:50:21.167Z,25.20
2019-04-26T02:52:58.970Z,28.75
2019-04-26T02:55:42.409Z,30.17
2019-04-26T02:58:11.335Z,29.02
2019-04-26T03:00:40.465Z,30.90
2019-04-26T03:03:10.467Z,33.00
2019-04-26T03:05:41.950Z,25.17
2019-04-26T03:08:13.669Z,30.92
2019-04-26T03:10:45.170Z,30.72
2019-04-26T03:13:18.518Z,31.73
2019-04-26T03:15:51.822Z,31.20
2019-04-26T03:18:37.422Z,30.77
2019-04-26T03:21:13.091Z,23.22
2019-04-26T03:23:57.521Z,30.65
2019-04-26T03:26:23.776Z,38.15
2019-04-26T03:28:58.389Z,31.65
2019-04-26T03:31:54.737Z,27.95
2019-04-26T03:34:57.507Z,30.17
2019-04-26T03:37:45.318Z,31.62
2019-04-26T03:40:38.438Z,31.17
2019-04-26T03:43:12.521Z,27.40
2019-04-26T03:46:01.307Z,23.50
2019-04-26T03:48:39.921Z,33.73
2019-04-26T03:51:28.243Z,36.28
2019-04-26T03:54:00.013Z,34.35
2019-04-26T03:56:35.909Z,38.98
2019-04-26T03:59:08.264Z,38.33
2019-04-26T04:01:50.328Z,41.15
2019-04-26T04:04:41.634Z,45.85
2019-04-26T04:07:13.257Z,35.08
2019-04-26T04:12:39.767Z,55.28
2019-04-26T04:15:14.294Z,38.70
2019-04-26T04:17:50.438Z,31.27
2019-04-26T04:20:52.137Z,47.70
2019-04-26T04:23:45.076Z,48.05
2019-04-26T04:26:16.804Z,69.90
2019-04-26T04:29:00.568Z,47.08
2019-04-26T04:31:45.695Z,34.00
2019-04-26T04:34:41.567Z,46.85
2019-04-26T04:37:11.784Z,43.08
2019-04-26T04:42:28.053Z,71.93
2019-04-26T04:45:28.315Z,48.33
2019-04-26T04:48:18.084Z,42.38
2019-04-26T04:50:58.944Z,49.70
2019-04-26T04:53:33.369Z,38.50
2019-04-26T04:56:11.142Z,53.68
2019-04-26T04:58:54.947Z,45.98
2019-04-26T05:01:56.196Z,54.18
2019-04-26T05:04:40.422Z,37.15
2019-04-26T05:07:32.969Z,47.25
2019-04-26T05:10:22.753Z,52.43
2019-04-26T05:13:12.317Z,51.98
2019-04-26T05:16:23.528Z,47.17
2019-04-26T05:19:30.485Z,63.33
2019-04-26T05:22:08.201Z,63.63
2019-04-26T05:24:56.784Z,74.37
2019-04-26T05:27:44.764Z,73.12
2019-04-26T05:30:30.885Z,46.30
2019-04-26T05:33:14.198Z,79.47
2019-04-26T05:35:53.430Z,59.48
2019-04-26T05:38:40.293Z,52.08
2019-04-26T05:41:12.104Z,48.10
2019-04-26T05:43:57.999Z,46.37
2019-04-26T05:46:50.234Z,67.42
2019-04-26T05:50:07.626Z,54.33
2019-04-26T05:53:06.951Z,59.80
2019-04-26T05:56:02.403Z,54.20
2019-04-26T05:58:52.897Z,55.33
2019-04-26T06:01:35.108Z,53.08
2019-04-26T06:04:23.291Z,63.38
2019-04-26T06:07:25.483Z,63.70
2019-04-26T06:10:12.067Z,52.33
2019-04-26T06:13:09.807Z,66.30
2019-04-26T06:15:43.128Z,54.67
2019-04-26T06:18:40.523Z,59.03
2019-04-26T06:21:30.395Z,58.65
2019-04-26T06:24:10.945Z,52.10
2019-04-26T06:27:12.156Z,50.38
2019-04-26T06:29:35.139Z,55.05
2019-04-26T06:32:12.761Z,63.00
2019-04-26T06:35:01.429Z,53.68
2019-04-26T06:37:34.903Z,58.20
2019-04-26T06:40:16.056Z,43.25
2019-04-26T06:43:07.280Z,49.23
2019-04-26T06:45:56.810Z,49.98
2019-04-26T06:49:05.475Z,55.38
2019-04-26T06:51:43.262Z,43.50
2019-04-26T06:54:19.611Z,48.40
2019-04-26T06:57:12.691Z,43.52
2019-04-26T06:59:43.913Z,51.00
2019-04-26T07:02:27.829Z,45.70
2019-04-26T07:05:02.911Z,40.80
2019-04-26T07:08:00.057Z,56.20
2019-04-26T07:11:09.692Z,41.02
2019-04-26T07:13:54.170Z,48.83
2019-04-26T07:16:37.621Z,43.90
2019-04-26T07:19:20.933Z,41.98
2019-04-26T07:22:35.227Z,49.83
2019-04-26T07:25:32.086Z,47.08
2019-04-26T07:28:18.622Z,37.40
2019-04-26T07:30:53.105Z,39.33
2019-04-26T07:33:30.935Z,40.75
2019-04-26T07:36:29.802Z,44.15
2019-04-26T07:39:20.253Z,43.95
2019-04-26T07:42:30.273Z,37.25
2019-04-26T07:45:35.344Z,32.03
2019-04-26T07:48:18.963Z,46.08
2019-04-26T07:51:10.032Z,56.40
2019-04-26T07:53:47.226Z,37.73
2019-04-26T07:56:24.620Z,39.30
2019-04-26T07:59:08.790Z,42.13
2019-04-26T08:02:08.981Z,44.13
2019-04-26T08:04:43.798Z,36.45
2019-04-26T08:07:24.577Z,33.40
2019-04-26T08:10:15.625Z,26.10
2019-04-26T08:12:49.934Z,38.05
2019-04-26T08:15:39.280Z,39.85
2019-04-26T08:18:18.661Z,25.17
2019-04-26T08:20:53.987Z,35.95
2019-04-26T08:23:38.606Z,32.25
2019-04-26T08:25:58.963Z,34.75
2019-04-26T08:28:30.373Z,25.20
2019-04-26T08:33:32.673Z,36.13
2019-04-26T08:36:04.358Z,31.27
2019-04-26T08:38:34.969Z,28.87
2019-04-26T08:41:05.207Z,32.75
2019-04-26T08:43:37.340Z,28.42
2019-04-26T08:46:12.535Z,23.35
2019-04-26T08:48:43.825Z,24.10
2019-04-26T08:51:22.042Z,25.17
2019-04-26T08:53:52.973Z,29.45
2019-04-26T08:56:33.504Z,25.15
2019-04-26T08:59:13.897Z,22.10
2019-04-26T09:02:03.606Z,25.25
2019-04-26T09:04:39.106Z,27.77
2019-04-26T09:07:12.417Z,22.22
2019-04-26T09:09:56.477Z,22.00
2019-04-26T09:12:23.397Z,24.85
2019-04-26T09:14:52.268Z,22.70
2019-04-26T09:17:21.041Z,23.32
2019-04-26T09:19:50.534Z,19.37
2019-04-26T09:22:22.554Z,19.35
2019-04-26T09:24:55.131Z,19.62
2019-04-26T09:27:31.416Z,30.57
2019-04-26T09:30:06.136Z,20.70
2019-04-26T09:32:36.779Z,27.17
2019-04-26T09:35:07.056Z,31.83
2019-04-26T09:37:35.841Z,22.95
2019-04-26T09:40:10.681Z,22.90
2019-04-26T09:42:44.782Z,16.45
2019-04-26T09:45:27.460Z,17.60
2019-04-26T09:48:03.265Z,15.23
2019-04-26T09:50:39.502Z,21.00
2019-04-26T09:53:09.705Z,24.75
2019-04-26T09:55:38.493Z,23.77
2019-04-26T09:58:08.739Z,15.75
2019-04-26T10:00:38.144Z,24.50
2019-04-26T10:03:09.508Z,15.88
2019-04-26T10:05:37.320Z,15.00
2019-04-26T10:08:08.268Z,22.93
2019-04-26T10:10:36.539Z,21.62
2019-04-26T10:13:09.971Z,20.10
2019-04-26T10:15:58.301Z,20.95
2019-04-26T10:18:25.991Z,18.25
2019-04-26T10:20:54.841Z,23.38
2019-04-26T10:23:23.581Z,19.55
2019-04-26T10:25:53.610Z,23.70
2019-04-26T10:28:22.791Z,29.40
2019-04-26T10:30:51.587Z,18.52
2019-04-26T10:33:20.441Z,15.35
2019-04-26T10:35:52.569Z,20.90
2019-04-26T10:38:23.670Z,21.48
2019-04-26T10:40:49.986Z,17.98
2019-04-26T10:43:21.109Z,18.35
2019-04-26T10:48:19.780Z,20.75
2019-04-26T10:50:49.727Z,25.23
2019-04-26T10:53:33.182Z,18.12
2019-04-26T10:56:24.160Z,17.98
2019-04-26T10:58:59.107Z,18.02
2019-04-26T11:01:28.140Z,14.38
2019-04-26T11:03:56.868Z,22.37
2019-04-26T11:06:27.876Z,19.70
2019-04-26T11:08:57.777Z,14.53
2019-04-26T11:11:26.613Z,20.45
2019-04-26T11:13:57.548Z,21.50
2019-04-26T11:16:27.273Z,18.25
2019-04-26T11:18:57.221Z,22.20
2019-04-26T11:21:26.447Z,19.92
2019-04-26T11:23:56.312Z,20.70
2019-04-26T11:26:26.706Z,17.70
2019-04-26T11:28:57.626Z,21.05
2019-04-26T11:31:27.828Z,18.60
2019-04-26T11:34:05.065Z,16.07
2019-04-26T11:36:27.222Z,19.63
2019-04-26T11:38:55.964Z,22.80
2019-04-26T11:41:25.407Z,23.60
2019-04-26T11:43:54.520Z,19.70
2019-04-26T11:46:29.257Z,21.82
2019-04-26T11:48:59.227Z,22.73
2019-04-26T11:51:27.608Z,19.55
2019-04-26T11:53:55.364Z,15.98
2019-04-26T11:56:25.501Z,19.32
2019-04-26T11:58:56.835Z,25.87
2019-04-26T12:01:26.284Z,16.67
2019-04-26T12:04:12.526Z,21.37
2019-04-26T12:06:48.755Z,20.92
2019-04-26T12:09:28.067Z,28.52
2019-04-26T12:12:04.330Z,29.48
2019-04-26T12:14:29.509Z,29.92
2019-04-26T12:16:59.684Z,25.32
2019-04-26T12:19:28.112Z,21.52
2019-04-26T12:21:56.948Z,22.37
2019-04-26T12:24:30.022Z,28.45
2019-04-26T12:26:57.478Z,24.00
2019-04-26T12:29:26.484Z,30.85
2019-04-26T12:31:55.333Z,26.40
2019-04-26T12:34:24.053Z,32.63
2019-04-26T12:36:52.771Z,19.98
2019-04-26T12:39:21.773Z,18.32
2019-04-26T12:41:50.506Z,20.97
2019-04-26T12:44:19.383Z,31.07
2019-04-26T12:47:03.656Z,21.80
2019-04-26T12:49:30.956Z,23.32
2019-04-26T12:51:59.677Z,31.15
2019-04-26T12:54:28.385Z,21.15
2019-04-26T12:56:57.126Z,25.40
2019-04-26T12:59:26.580Z,27.45
2019-04-26T13:02:05.407Z,28.80
2019-04-26T13:04:35.495Z,19.98
2019-04-26T13:07:02.445Z,19.40
2019-04-26T13:09:33.050Z,15.80
2019-04-26T13:12:10.602Z,20.53
2019-04-26T13:14:59.324Z,21.23
2019-04-26T13:17:35.654Z,20.25
2019-04-26T13:20:02.895Z,18.27
2019-04-26T13:22:32.161Z,16.93
2019-04-26T13:25:00.944Z,18.65
2019-04-26T13:27:29.699Z,27.75
2019-04-26T13:30:02.587Z,17.00
2019-04-26T13:32:30.268Z,17.45
2019-04-26T13:34:59.111Z,21.10
2019-04-26T13:37:27.888Z,20.27
2019-04-26T13:39:56.772Z,26.12
2019-04-26T13:42:25.648Z,20.72
2019-04-26T13:44:56.030Z,23.90
2019-04-26T13:47:29.208Z,18.92
2019-04-26T13:50:14.316Z,20.00
2019-04-26T13:52:43.001Z,27.55
2019-04-26T13:55:11.856Z,21.52
2019-04-26T13:57:44.589Z,31.27
2019-04-26T14:00:13.571Z,29.27
2019-04-26T14:05:11.137Z,28.40
2019-04-26T14:07:40.840Z,29.90
2019-04-26T14:10:09.726Z,31.77
2019-04-26T14:12:40.449Z,22.85
2019-04-26T14:15:10.213Z,26.68
2019-04-26T14:17:39.105Z,19.70
2019-04-26T14:20:07.913Z,26.40
2019-04-26T14:22:50.197Z,29.57
2019-04-26T14:25:20.564Z,27.50
2019-04-26T14:27:53.874Z,19.25
2019-04-26T14:30:22.668Z,26.93
2019-04-26T14:32:53.151Z,32.75
2019-04-26T14:35:21.864Z,30.27
2019-04-26T14:37:51.608Z,40.08
2019-04-26T14:40:20.440Z,28.42
2019-04-26T14:42:49.228Z,30.02
2019-04-26T14:45:23.887Z,42.70
2019-04-26T14:47:48.575Z,30.60
2019-04-26T14:50:17.352Z,32.65
2019-04-26T14:52:46.149Z,24.32
2019-04-26T14:55:16.487Z,28.57
2019-04-26T14:57:46.750Z,24.07
2019-04-26T15:00:16.815Z,32.30
2019-04-26T15:02:48.572Z,47.93
2019-04-26T15:05:28.018Z,39.58
2019-04-26T15:07:56.784Z,33.13
2019-04-26T15:10:27.208Z,22.87
2019-04-26T15:13:11.471Z,27.83
2019-04-26T15:15:30.978Z,18.87
2019-04-26T15:17:59.361Z,32.63
2019-04-26T15:20:27.200Z,24.60
2019-04-26T15:22:55.940Z,27.93
2019-04-26T15:25:24.672Z,32.80
2019-04-26T15:27:53.416Z,21.50
2019-04-26T15:30:23.864Z,28.50
2019-04-26T15:32:52.970Z,26.70
2019-04-26T15:35:23.181Z,25.82
2019-04-26T15:37:53.492Z,25.08
2019-04-26T15:40:40.444Z,17.35
2019-04-26T15:43:14.742Z,30.97
2019-04-26T15:45:57.346Z,34.60
2019-04-26T15:48:27.712Z,23.55
2019-04-26T15:51:05.330Z,29.40
2019-04-26T15:53:34.054Z,22.77
2019-04-26T15:56:02.795Z,21.48
2019-04-26T15:58:31.514Z,25.45
2019-04-26T16:01:00.408Z,22.40
2019-04-26T16:03:29.224Z,11.88
2019-04-26T16:05:59.220Z,8.93
2019-04-26T16:08:28.357Z,15.32
2019-04-26T16:10:57.075Z,14.13
2019-04-26T16:13:25.802Z,9.18
2019-04-26T16:15:54.620Z,13.15
2019-04-26T16:18:23.436Z,10.08
2019-04-26T16:20:53.342Z,14.05
2019-04-26T16:23:22.429Z,12.90
2019-04-26T16:25:53.435Z,12.50
2019-04-26T16:28:42.997Z,15.93
2019-04-26T16:31:27.572Z,16.80
2019-04-26T16:34:10.555Z,12.15
2019-04-26T16:36:43.887Z,18.67
2019-04-26T16:39:12.919Z,13.63
2019-04-26T16:41:42.148Z,14.63
2019-04-26T16:44:12.870Z,23.87
2019-04-26T16:46:43.480Z,22.55
2019-04-26T16:49:14.116Z,33.02
2019-04-26T16:51:43.649Z,23.45
2019-04-26T16:54:21.331Z,16.40
2019-04-26T16:56:46.133Z,24.95
2019-04-26T16:59:22.870Z,30.68
2019-04-26T17:01:47.304Z,25.25
2019-04-26T17:04:20.007Z,20.20
2019-04-26T17:06:46.473Z,44.65
2019-04-26T17:09:15.450Z,30.48
2019-04-26T17:11:44.156Z,28.42
2019-04-26T17:14:13.369Z,44.93
2019-04-26T17:16:44.280Z,39.95
2019-04-26T17:19:13.779Z,36.53
2019-04-26T17:21:44.221Z,25.97
2019-04-26T17:24:29.342Z,34.85
2019-04-26T17:27:05.384Z,28.10
2019-04-26T17:29:33.468Z,22.82
2019-04-26T17:32:02.633Z,27.93
2019-04-26T17:34:33.534Z,37.95
2019-04-26T17:37:02.510Z,29.32
2019-04-26T17:39:32.353Z,31.90
2019-04-26T17:42:02.439Z,29.32
2019-04-26T17:44:34.104Z,32.30
2019-04-26T17:47:02.937Z,45.35
2019-04-26T17:49:34.466Z,39.63
2019-04-26T17:52:06.466Z,31.90
2019-04-26T17:54:46.339Z,34.03
2019-04-26T17:57:08.857Z,44.70
2019-04-26T17:59:36.970Z,36.58
2019-04-26T18:02:19.631Z,45.48
2019-04-26T18:04:38.135Z,56.63
2019-04-26T18:07:33.801Z,53.95
2019-04-26T18:09:43.785Z,33.73
2019-04-26T18:12:07.873Z,30.35
2019-04-26T18:14:37.368Z,27.00
2019-04-26T18:17:07.757Z,26.42
2019-04-26T18:20:00.706Z,23.42
2019-04-26T18:22:34.552Z,32.10
2019-04-26T18:25:05.795Z,30.40
2019-04-26T18:27:35.692Z,29.23
2019-04-26T18:30:08.367Z,33.67
2019-04-26T18:32:33.582Z,32.88
2019-04-26T18:35:02.273Z,26.20
2019-04-26T18:37:31.007Z,27.13
2019-04-26T18:40:01.976Z,26.65
2019-04-26T18:42:33.509Z,25.88
2019-04-26T18:45:03.613Z,29.32
2019-04-26T18:47:34.126Z,29.90
2019-04-26T18:50:03.048Z,25.50
2019-04-26T18:52:33.431Z,30.50
2019-04-26T18:55:05.634Z,26.68
2019-04-26T18:57:34.292Z,28.17
2019-04-26T19:00:04.126Z,26.25
2019-04-26T19:02:34.970Z,22.00
2019-04-26T19:05:04.997Z,27.35
2019-04-26T19:07:33.793Z,27.80
2019-04-26T19:10:05.244Z,21.17
2019-04-26T19:12:33.177Z,29.82
2019-04-26T19:15:18.991Z,20.15
2019-04-26T19:18:05.413Z,27.10
2019-04-26T19:20:38.952Z,26.37
2019-04-26T19:23:09.565Z,25.72
2019-04-26T19:25:40.954Z,22.58
2019-04-26T19:28:08.716Z,21.93
2019-04-26T19:30:39.929Z,29.37
2019-04-26T19:33:11.668Z,36.88
2019-04-26T19:35:39.380Z,26.27
2019-04-26T19:38:13.350Z,33.05
2019-04-26T19:40:46.465Z,25.23
2019-04-26T19:43:10.069Z,35.25
2019-04-26T19:45:49.792Z,34.58
2019-04-26T19:48:32.413Z,31.95
2019-04-26T19:51:23.674Z,34.75
2019-04-26T19:54:02.149Z,20.88
2019-04-26T19:56:32.568Z,23.52
2019-04-26T19:59:01.293Z,29.27
2019-04-26T20:01:30.305Z,23.85
2019-04-26T20:03:59.132Z,27.82
2019-04-26T20:06:27.869Z,29.75
2019-04-26T20:08:56.598Z,25.82
2019-04-26T20:11:25.328Z,27.07
2019-04-26T20:13:55.291Z,26.80
2019-04-26T20:16:25.819Z,26.37
2019-04-26T20:18:54.623Z,28.77
2019-04-26T20:21:23.398Z,21.60
2019-04-26T20:23:54.371Z,25.17
2019-04-26T20:26:22.639Z,30.77
2019-04-26T20:28:51.565Z,36.53
2019-04-26T20:31:37.491Z,25.23
2019-04-26T20:34:05.609Z,25.30
2019-04-26T20:36:40.670Z,24.20
2019-04-26T20:39:07.359Z,37.28
2019-04-26T20:41:36.092Z,26.65
2019-04-26T20:44:09.616Z,28.35
2019-04-26T20:46:37.691Z,33.83
2019-04-26T20:49:08.861Z,29.07
2019-04-26T20:51:36.165Z,28.83
2019-04-26T20:54:04.858Z,27.27
2019-04-26T20:56:33.579Z,28.02
2019-04-26T20:59:02.329Z,34.40
2019-04-26T21:01:32.103Z,37.23
2019-04-26T21:04:01.993Z,30.37
2019-04-26T21:06:33.860Z,30.50
2019-04-26T21:09:03.299Z,35.98
2019-04-26T21:11:37.201Z,39.90
2019-04-26T21:14:07.444Z,27.02
2019-04-26T21:16:32.566Z,31.10
2019-04-26T21:19:01.875Z,34.27
2019-04-26T21:21:32.087Z,30.50
2019-04-26T21:24:03.688Z,26.40
2019-04-26T21:26:54.489Z,28.92
2019-04-26T21:29:29.786Z,26.57
2019-04-26T21:32:00.424Z,27.30
2019-04-26T21:34:34.766Z,26.60
2019-04-26T21:37:11.366Z,25.85
2019-04-26T21:39:49.214Z,25.37
2019-04-26T21:42:20.954Z,23.55
2019-04-26T21:44:52.473Z,22.32
2019-04-26T21:47:18.911Z,23.12
2019-04-26T21:49:47.662Z,30.25
2019-04-26T21:52:16.389Z,23.27
2019-04-26T21:54:48.382Z,23.30
2019-04-26T21:57:18.363Z,22.80
2019-04-26T21:59:46.014Z,21.68
2019-04-26T22:02:16.880Z,25.82
2019-04-26T22:04:45.609Z,20.97
2019-04-26T22:07:14.606Z,25.27
2019-04-26T22:10:00.148Z,20.62
2019-04-26T22:12:31.285Z,25.80
2019-04-26T22:15:06.637Z,24.70
2019-04-26T22:17:40.715Z,24.27
2019-04-26T22:20:12.653Z,33.92
2019-04-26T22:22:54.095Z,21.95
2019-04-26T22:25:26.008Z,30.88
2019-04-26T22:28:00.289Z,23.45
2019-04-26T22:30:29.737Z,22.37
2019-04-26T22:32:58.606Z,23.45
2019-04-26T22:35:28.644Z,24.20
2019-04-26T22:37:57.516Z,21.02
2019-04-26T22:40:26.256Z,24.98
2019-04-26T22:42:56.636Z,28.98
2019-04-26T22:45:27.920Z,21.57
2019-04-26T22:47:58.393Z,27.20
2019-04-26T22:50:27.138Z,22.67
2019-04-26T22:52:55.852Z,23.73
2019-04-26T22:55:27.535Z,26.95
2019-04-26T22:57:55.464Z,19.82
2019-04-26T23:00:29.417Z,22.73
2019-04-26T23:03:03.731Z,23.83
2019-04-26T23:05:30.672Z,26.52
2019-04-26T23:07:59.538Z,24.15
2019-04-26T23:10:33.949Z,26.05
2019-04-26T23:13:08.152Z,25.05
2019-04-26T23:15:38.752Z,33.20
2019-04-26T23:18:25.359Z,41.08
2019-04-26T23:21:03.416Z,35.45
2019-04-26T23:23:32.323Z,29.00
2019-04-26T23:26:02.343Z,31.95
2019-04-26T23:28:33.962Z,33.02
2019-04-26T23:31:07.848Z,32.42
2019-04-26T23:33:33.872Z,24.60
2019-04-26T23:36:03.237Z,20.85
2019-04-26T23:38:34.549Z,21.48
2019-04-26T23:41:07.014Z,24.00
2019-04-26T23:43:32.932Z,22.13
2019-04-26T23:46:01.654Z,28.10
2019-04-26T23:48:30.384Z,24.75
2019-04-26T23:50:59.889Z,26.65
2019-04-26T23:53:29.557Z,28.92
2019-04-26T23:55:58.342Z,25.05
2019-04-26T23:58:27.099Z,37.03
